Time;durP1;ratioP1;P1;durP2;ratioP2;P2;SDS_P1;SDS_P2;PMS_P1;PMS_P2;Temp;Humidity;BMP_temperature;BMP_pressure;BME280_temperature;BME280_humidity;BME280_pressure;Samples;Min_cycle;Max_cycle;Signal;HPM_P1;HPM_P2
2021/07/12 00:01:31;;;;;;;10.23;8.23;;;18.60;1.00;;;;;;5015791;28;20207;-63
2021/07/12 00:03:59;;;;;;;8.83;7.93;;;18.60;1.00;;;;;;5015761;28;20249;-62
2021/07/12 00:06:26;;;;;;;8.43;7.63;;;18.50;52.00;;;;;;5015809;28;20715;-63
2021/07/12 00:08:52;;;;;;;8.83;7.93;;;18.50;99.90;;;;;;5015362;28;20273;-63
2021/07/12 00:11:19;;;;;;;8.57;7.67;;;18.50;99.90;;;;;;5015397;28;20207;-63
2021/07/12 00:13:47;;;;;;;12.27;8.70;;;18.60;99.90;;;;;;5015467;28;20211;-63
2021/07/12 00:16:14;;;;;;;8.23;7.43;;;18.60;99.90;;;;;;5015569;28;20265;-63
2021/07/12 00:18:41;;;;;;;12.00;7.60;;;18.60;99.90;;;;;;5015451;28;20199;-63
2021/07/12 00:21:09;;;;;;;10.50;8.60;;;18.60;99.90;;;;;;5015528;28;20211;-62
2021/07/12 00:23:36;;;;;;;8.27;7.43;;;18.60;99.90;;;;;;5015282;28;20214;-63
2021/07/12 00:26:03;;;;;;;10.97;8.30;;;18.60;99.90;;;;;;5015221;28;20249;-62
2021/07/12 00:28:30;;;;;;;9.47;8.50;;;18.60;99.90;;;;;;5015161;28;20605;-62
2021/07/12 00:30:57;;;;;;;10.87;8.27;;;18.60;99.90;;;;;;5015425;28;20264;-63
2021/07/12 00:33:23;;;;;;;8.30;7.50;;;18.60;99.90;;;;;;5015122;28;20203;-61
2021/07/12 00:35:50;;;;;;;9.87;7.87;;;18.60;99.90;;;;;;5015088;28;20273;-62
2021/07/12 00:38:18;;;;;;;9.23;8.33;;;18.50;99.90;;;;;;5014910;28;20254;-63
2021/07/12 00:40:45;;;;;;;9.30;8.20;;;18.50;99.90;;;;;;5015214;28;20211;-63
2021/07/12 00:43:11;;;;;;;12.30;8.00;;;18.40;99.90;;;;;;5014510;28;20206;-63
2021/07/12 00:45:38;;;;;;;10.00;8.37;;;18.30;99.90;;;;;;5014368;28;20242;-62
2021/07/12 00:48:06;;;;;;;8.50;7.70;;;18.20;99.90;;;;;;5015403;28;20223;-65
2021/07/12 00:50:35;;;;;;;9.00;8.10;;;18.20;99.90;;;;;;5014909;28;20258;-63
2021/07/12 00:53:04;;;;;;;10.27;8.10;;;18.20;99.90;;;;;;5015011;28;20206;-63
2021/07/12 00:55:35;;;;;;;8.67;7.77;;;18.20;99.90;;;;;;5014608;28;20241;-62
2021/07/12 00:58:05;;;;;;;8.80;7.83;;;18.20;99.90;;;;;;5014841;28;20575;-63
2021/07/12 01:00:31;;;;;;;9.97;8.10;;;18.20;99.90;;;;;;5014876;28;20206;-63
2021/07/12 01:02:58;;;;;;;11.60;8.07;;;18.10;99.90;;;;;;5014611;28;20203;-62
2021/07/12 01:05:27;;;;;;;8.90;8.10;;;18.10;99.90;;;;;;5014191;28;20647;-63
2021/07/12 01:07:54;;;;;;;9.30;8.07;;;18.10;99.90;;;;;;5014468;28;20274;-63
2021/07/12 01:10:22;;;;;;;9.27;8.23;;;18.00;99.90;;;;;;5014415;28;20226;-63
2021/07/12 01:12:58;;;;;;;8.60;7.80;;;18.00;99.90;;;;;;5014265;28;20621;-63
2021/07/12 01:15:29;;;;;;;9.73;8.63;;;17.90;99.90;;;;;;5014556;28;20557;-63
2021/07/12 01:18:02;;;;;;;12.17;8.87;;;17.70;99.90;;;;;;5014249;28;20227;-63
2021/07/12 01:21:09;;;;;;;9.83;8.77;;;17.70;99.90;;;;;;5014519;28;20218;-63
2021/07/12 01:24:09;;;;;;;11.23;8.40;;;17.60;99.90;;;;;;5014375;28;20238;-63
2021/07/12 01:27:06;;;;;;;9.60;8.70;;;17.60;99.90;;;;;;5014227;28;20226;-62
2021/07/12 01:29:56;;;;;;;9.87;8.37;;;17.60;99.90;;;;;;5014215;28;20227;-63
2021/07/12 01:32:43;;;;;;;13.00;9.00;;;17.50;99.90;;;;;;5014020;28;20261;-63
2021/07/12 01:35:18;;;;;;;11.07;8.87;;;17.40;1.00;;;;;;5014046;28;20352;-62
2021/07/12 01:37:54;;;;;;;9.17;8.23;;;17.40;1.00;;;;;;5014001;28;20227;-63
2021/07/12 01:40:28;;;;;;;10.93;8.83;;;17.40;1.00;;;;;;5014117;28;20286;-64
2021/07/12 01:43:07;;;;;;;11.40;8.97;;;17.40;1.00;;;;;;5013864;28;20623;-64
2021/07/12 01:45:46;;;;;;;11.13;8.27;;;17.30;33.50;;;;;;5013891;28;20206;-63
2021/07/12 01:48:23;;;;;;;9.70;8.70;;;17.20;99.90;;;;;;5013741;28;20227;-63
2021/07/12 01:50:54;;;;;;;9.80;8.80;;;17.20;1.00;;;;;;5013755;28;20222;-62
2021/07/12 01:53:28;;;;;;;14.03;9.40;;;17.10;99.90;;;;;;5013473;28;20643;-62
2021/07/12 01:55:58;;;;;;;10.37;9.30;;;17.10;99.90;;;;;;5013200;28;20689;-63
2021/07/12 01:58:30;;;;;;;11.50;9.93;;;17.10;1.00;;;;;;5013496;28;20235;-62
2021/07/12 02:00:57;;;;;;;10.60;9.43;;;17.10;1.00;;;;;;5013898;28;20207;-63
2021/07/12 02:03:27;;;;;;;11.80;10.00;;;17.00;1.00;;;;;;5013645;28;20237;-62
2021/07/12 02:05:58;;;;;;;10.67;9.37;;;17.00;23.30;;;;;;5013307;28;20259;-62
2021/07/12 02:08:25;;;;;;;10.47;9.27;;;17.00;1.00;;;;;;5013337;28;20239;-62
2021/07/12 02:10:55;;;;;;;13.77;9.70;;;17.00;1.00;;;;;;5013243;28;20226;-63
2021/07/12 02:13:22;;;;;;;12.63;9.60;;;17.00;1.00;;;;;;5013375;28;20256;-63
2021/07/12 02:15:52;;;;;;;10.73;9.63;;;17.00;99.90;;;;;;5013085;28;20264;-63
2021/07/12 02:18:24;;;;;;;9.70;8.67;;;17.00;99.90;;;;;;5013215;28;20652;-62
2021/07/12 02:20:54;;;;;;;12.20;9.13;;;17.00;99.90;;;;;;5013201;28;20202;-62
2021/07/12 02:23:22;;;;;;;9.60;8.60;;;17.00;1.00;;;;;;5013243;28;20273;-63
2021/07/12 02:25:50;;;;;;;10.30;9.33;;;17.00;1.00;;;;;;5012740;28;20675;-63
2021/07/12 02:28:17;;;;;;;10.47;9.00;;;17.00;87.60;;;;;;5013140;28;20230;-63
2021/07/12 02:30:45;;;;;;;10.20;9.20;;;17.00;99.90;;;;;;5012867;28;20578;-63
2021/07/12 02:33:12;;;;;;;13.17;10.53;;;17.00;99.90;;;;;;5012767;28;20943;-63
2021/07/12 02:35:40;;;;;;;11.27;10.17;;;17.00;99.90;;;;;;5012855;28;20261;-63
2021/07/12 02:38:09;;;;;;;12.60;10.83;;;16.90;99.90;;;;;;5012935;28;20281;-63
2021/07/12 02:40:36;;;;;;;12.27;10.97;;;16.80;99.90;;;;;;5012837;28;20207;-62
2021/07/12 02:43:04;;;;;;;13.63;11.67;;;16.80;99.90;;;;;;5012755;28;20245;-63
2021/07/12 02:45:32;;;;;;;14.97;11.73;;;16.60;1.00;;;;;;5012485;28;20211;-63
2021/07/12 02:48:00;;;;;;;12.23;10.93;;;16.60;28.20;;;;;;5012709;28;20309;-63
2021/07/12 02:50:28;;;;;;;12.47;11.27;;;16.60;99.90;;;;;;5012704;28;20616;-62
2021/07/12 02:53:01;;;;;;;12.73;11.43;;;16.60;99.90;;;;;;5012623;28;20203;-63
2021/07/12 02:55:29;;;;;;;15.07;12.33;;;16.60;99.90;;;;;;5012434;28;20250;-62
2021/07/12 02:57:55;;;;;;;14.93;12.10;;;16.60;1.00;;;;;;5012392;28;20277;-62
2021/07/12 03:00:22;;;;;;;13.90;11.90;;;16.60;99.90;;;;;;5012730;28;20211;-63
2021/07/12 03:02:49;;;;;;;14.10;12.60;;;16.60;99.90;;;;;;5012573;28;20207;-63
2021/07/12 03:05:15;;;;;;;20.27;14.23;;;16.60;99.90;;;;;;5012569;28;20213;-63
2021/07/12 03:07:45;;;;;;;15.13;13.53;;;16.60;99.90;;;;;;5011670;28;20238;-63
2021/07/12 03:10:16;;;;;;;15.13;13.30;;;16.60;99.90;;;;;;5012268;28;20227;-63
2021/07/12 03:12:48;;;;;;;17.77;14.27;;;16.50;99.90;;;;;;5012219;28;20217;-63
2021/07/12 03:15:16;;;;;;;16.07;14.17;;;16.50;99.90;;;;;;5012509;28;20207;-63
2021/07/12 03:17:46;;;;;;;24.37;15.23;;;16.50;99.90;;;;;;5012531;28;20222;-63
2021/07/12 03:20:14;;;;;;;17.17;15.13;;;16.50;99.90;;;;;;5012294;28;20210;-63
2021/07/12 03:22:43;;;;;;;18.63;15.43;;;16.40;1.00;;;;;;5012345;28;20207;-63
2021/07/12 03:25:12;;;;;;;20.67;16.63;;;16.40;1.00;;;;;;5011778;28;20554;-63
2021/07/12 03:27:40;;;;;;;22.87;17.30;;;16.40;99.90;;;;;;5012167;28;20282;-63
2021/07/12 03:30:11;;;;;;;21.80;16.27;;;16.40;99.90;;;;;;5012153;28;20226;-63
2021/07/12 03:32:42;;;;;;;19.33;16.33;;;16.30;1.00;;;;;;5012313;28;20211;-63
2021/07/12 03:35:10;;;;;;;18.57;16.63;;;16.30;55.80;;;;;;5011972;28;20207;-63
2021/07/12 03:37:38;;;;;;;19.93;16.97;;;16.20;1.00;;;;;;5012859;28;20231;-63
2021/07/12 03:40:05;;;;;;;19.00;16.03;;;16.20;1.00;;;;;;5013591;28;20624;-63
2021/07/12 03:42:34;;;;;;;18.83;15.83;;;16.20;50.30;;;;;;5013188;28;20203;-63
2021/07/12 03:45:02;;;;;;;18.23;15.50;;;16.20;1.00;;;;;;5012029;28;20202;-62
2021/07/12 03:47:32;;;;;;;18.73;15.77;;;16.30;1.00;;;;;;5012996;28;20231;-62
2021/07/12 03:50:10;;;;;;;20.07;16.07;;;16.30;1.00;;;;;;5014689;28;20598;-63
2021/07/12 03:52:41;;;;;;;18.10;15.90;;;16.40;99.90;;;;;;5014389;28;20298;-63
2021/07/12 03:55:09;;;;;;;20.23;15.50;;;16.40;99.90;;;;;;5011970;28;20243;-63
2021/07/12 03:57:36;;;;;;;19.30;16.43;;;16.40;80.60;;;;;;5012325;28;20281;-62
2021/07/12 04:00:03;;;;;;;18.27;16.10;;;16.40;99.90;;;;;;5012392;28;20626;-63
2021/07/12 04:02:31;;;;;;;19.90;15.90;;;16.50;36.40;;;;;;5011936;28;20204;-63
2021/07/12 04:04:58;;;;;;;17.60;14.93;;;16.60;1.00;;;;;;5011904;28;20264;-63
2021/07/12 04:07:25;;;;;;;17.37;15.57;;;16.60;99.90;;;;;;5011750;28;20243;-63
2021/07/12 04:09:51;;;;;;;18.30;15.80;;;16.60;99.90;;;;;;5012365;28;20234;-62
2021/07/12 04:12:23;;;;;;;17.93;15.73;;;16.60;77.70;;;;;;5012076;28;20203;-63
2021/07/12 04:14:50;;;;;;;18.10;15.63;;;16.70;99.90;;;;;;5011774;28;20215;-62
2021/07/12 04:17:16;;;;;;;19.77;16.17;;;16.70;99.90;;;;;;5011727;28;20372;-63
2021/07/12 04:19:44;;;;;;;18.13;15.90;;;16.70;99.90;;;;;;5014798;28;20269;-63
2021/07/12 04:22:11;;;;;;;18.87;16.20;;;16.70;1.00;;;;;;5015429;28;20210;-63
2021/07/12 04:24:38;;;;;;;18.50;15.87;;;16.80;1.00;;;;;;5015275;28;20210;-63
2021/07/12 04:27:05;;;;;;;19.67;16.63;;;16.80;99.90;;;;;;5015212;28;20227;-63
2021/07/12 04:29:32;;;;;;;22.30;15.90;;;16.80;99.90;;;;;;5015014;28;20207;-63
2021/07/12 04:32:00;;;;;;;19.97;15.63;;;16.80;99.90;;;;;;5015431;28;20261;-63
2021/07/12 04:34:27;;;;;;;17.90;15.93;;;16.90;99.90;;;;;;5015041;28;20211;-63
2021/07/12 04:36:56;;;;;;;20.00;15.23;;;17.00;99.90;;;;;;5015271;28;20231;-63
2021/07/12 04:39:23;;;;;;;18.77;15.43;;;17.00;1.00;;;;;;5015056;28;20265;-62
2021/07/12 04:41:49;;;;;;;18.77;14.83;;;17.10;1.00;;;;;;5015086;28;20595;-63
2021/07/12 04:44:16;;;;;;;17.23;15.07;;;17.10;1.00;;;;;;5014621;28;20207;-63
2021/07/12 04:46:43;;;;;;;16.87;15.17;;;17.20;1.00;;;;;;5015175;28;20231;-63
2021/07/12 04:49:11;;;;;;;20.43;15.10;;;17.20;99.90;;;;;;5014919;28;20679;-63
2021/07/12 04:51:38;;;;;;;18.93;16.23;;;17.30;99.90;;;;;;5014952;28;20227;-62
2021/07/12 04:54:06;;;;;;;17.40;15.13;;;17.20;99.90;;;;;;5014519;28;20254;-62
2021/07/12 04:56:33;;;;;;;20.40;15.27;;;17.30;99.90;;;;;;5014701;28;20651;-63
2021/07/12 04:59:03;;;;;;;17.73;15.43;;;17.30;99.90;;;;;;5014939;28;20218;-63
2021/07/12 05:01:33;;;;;;;16.33;14.57;;;17.40;99.90;;;;;;5014767;28;20253;-63
2021/07/12 05:04:00;;;;;;;16.20;14.50;;;17.50;10.50;;;;;;5014731;28;20203;-64
2021/07/12 05:06:26;;;;;;;17.07;15.27;;;17.60;1.00;;;;;;5014632;28;20231;-64
2021/07/12 05:08:53;;;;;;;18.80;15.23;;;17.60;1.00;;;;;;5014761;28;20616;-62
2021/07/12 05:11:21;;;;;;;16.30;13.47;;;17.60;1.00;;;;;;5014115;28;20273;-63
2021/07/12 05:13:48;;;;;;;17.83;14.83;;;17.70;1.00;;;;;;5014550;28;20257;-63
2021/07/12 05:16:14;;;;;;;18.17;14.20;;;17.80;99.90;;;;;;5014761;28;20554;-63
2021/07/12 05:18:41;;;;;;;15.80;13.83;;;17.80;99.90;;;;;;5014508;28;20729;-63
2021/07/12 05:21:08;;;;;;;17.03;13.20;;;17.90;99.90;;;;;;5014456;28;20203;-62
2021/07/12 05:23:36;;;;;;;17.67;13.87;;;17.90;99.90;;;;;;5014231;28;20215;-63
2021/07/12 05:26:02;;;;;;;18.77;14.23;;;18.00;99.90;;;;;;5014157;28;20211;-63
2021/07/12 05:28:31;;;;;;;16.73;13.70;;;18.10;95.50;;;;;;5014253;28;20663;-63
2021/07/12 05:30:58;;;;;;;16.93;13.10;;;18.10;34.70;;;;;;5013638;28;20662;-62
2021/07/12 05:33:25;;;;;;;16.57;13.47;;;18.20;1.00;;;;;;5014279;28;20338;-63
2021/07/12 05:35:51;;;;;;;17.33;13.43;;;18.20;1.00;;;;;;5013967;28;20765;-62
2021/07/12 05:38:19;;;;;;;18.00;14.03;;;18.30;1.00;;;;;;5013704;28;20227;-63
2021/07/12 05:40:45;;;;;;;15.97;12.47;;;18.40;1.00;;;;;;5014060;28;20242;-63
2021/07/12 05:43:12;;;;;;;15.83;12.73;;;18.40;1.00;;;;;;5013976;28;20265;-65
2021/07/12 05:45:40;;;;;;;14.97;12.80;;;18.40;1.00;;;;;;5013999;28;20210;-63
2021/07/12 05:48:08;;;;;;;13.27;11.87;;;18.50;1.00;;;;;;5013801;28;20231;-63
2021/07/12 05:50:35;;;;;;;13.23;11.57;;;18.50;99.90;;;;;;5013924;28;20227;-63
2021/07/12 05:53:02;;;;;;;17.23;11.83;;;18.50;99.90;;;;;;5013452;28;20203;-66
2021/07/12 05:55:28;;;;;;;15.00;11.80;;;18.60;99.90;;;;;;5013673;28;20625;-63
2021/07/12 05:57:55;;;;;;;14.57;11.17;;;18.70;99.90;;;;;;5013515;28;20249;-63
2021/07/12 06:00:22;;;;;;;12.20;10.37;;;18.80;99.90;;;;;;5013819;28;20249;-64
2021/07/12 06:02:50;;;;;;;14.67;11.17;;;18.90;99.90;;;;;;5013709;28;20203;-62
2021/07/12 06:05:16;;;;;;;13.60;10.80;;;18.90;27.60;;;;;;5013565;28;20207;-62
2021/07/12 06:07:44;;;;;;;13.70;10.90;;;19.00;1.00;;;;;;5013224;28;20235;-64
2021/07/12 06:10:12;;;;;;;12.33;10.23;;;19.10;99.90;;;;;;5013495;28;20576;-63
2021/07/12 06:12:39;;;;;;;12.33;10.40;;;19.20;99.90;;;;;;5013613;28;20207;-64
2021/07/12 06:15:07;;;;;;;11.90;9.87;;;19.30;99.90;;;;;;5013381;28;20300;-65
2021/07/12 06:17:34;;;;;;;14.43;10.40;;;19.40;99.90;;;;;;5013314;28;20651;-65
2021/07/12 06:20:02;;;;;;;12.67;10.97;;;19.50;99.90;;;;;;5013128;28;20246;-63
2021/07/12 06:22:29;;;;;;;13.63;10.17;;;19.60;99.90;;;;;;5013562;28;20631;-66
2021/07/12 06:24:56;;;;;;;10.73;9.67;;;19.70;99.90;;;;;;5013151;28;20221;-65
2021/07/12 06:27:22;;;;;;;11.50;9.57;;;19.80;99.90;;;;;;5013157;28;20952;-65
2021/07/12 06:29:49;;;;;;;9.97;8.80;;;19.90;99.90;;;;;;5013392;28;20345;-64
2021/07/12 06:32:16;;;;;;;10.40;8.10;;;20.00;99.90;;;;;;5012973;28;20632;-64
2021/07/12 06:34:42;;;;;;;11.17;8.73;;;20.00;99.90;;;;;;5012646;28;20258;-65
2021/07/12 06:37:10;;;;;;;11.10;9.40;;;20.10;99.90;;;;;;5012617;28;20738;-63
2021/07/12 06:39:37;;;;;;;11.20;9.37;;;19.90;92.20;;;;;;5012933;28;20262;-64
2021/07/12 06:42:04;;;;;;;11.80;8.60;;;20.00;99.90;;;;;;5012656;28;20253;-64
2021/07/12 06:44:31;;;;;;;12.57;8.97;;;20.10;97.70;;;;;;5012563;28;20950;-64
2021/07/12 06:46:58;;;;;;;10.03;8.60;;;20.20;99.90;;;;;;5012567;28;20281;-64
2021/07/12 06:49:24;;;;;;;10.13;8.93;;;20.30;99.90;;;;;;5012513;28;20211;-65
2021/07/12 06:51:51;;;;;;;11.37;8.10;;;20.40;99.90;;;;;;5012655;28;20231;-64
2021/07/12 06:54:19;;;;;;;12.97;7.87;;;20.50;31.40;;;;;;5012740;28;20207;-63
2021/07/12 06:56:45;;;;;;;12.87;8.50;;;20.50;58.20;;;;;;5012529;28;20257;-64
2021/07/12 06:59:12;;;;;;;8.87;7.97;;;20.60;45.30;;;;;;5013025;28;20211;-64
2021/07/12 07:01:39;;;;;;;9.50;7.70;;;20.70;29.20;;;;;;5012285;28;20673;-64
2021/07/12 07:04:05;;;;;;;11.07;7.87;;;20.80;1.00;;;;;;5012352;28;20211;-65
2021/07/12 07:06:32;;;;;;;8.97;7.03;;;20.80;1.00;;;;;;5012729;28;20223;-64
2021/07/12 07:08:59;;;;;;;8.27;7.47;;;20.90;1.00;;;;;;5012637;28;20206;-65
2021/07/12 07:11:27;;;;;;;7.53;6.83;;;21.00;1.00;;;;;;5012514;28;20589;-65
2021/07/12 07:13:53;;;;;;;7.13;6.10;;;21.20;1.00;;;;;;5010852;28;20202;-64
2021/07/12 07:16:20;;;;;;;7.50;6.67;;;21.20;1.00;;;;;;5011400;28;20207;-64
2021/07/12 07:18:46;;;;;;;10.37;6.90;;;21.10;1.00;;;;;;5011847;28;20214;-65
2021/07/12 07:21:14;;;;;;;7.33;6.60;;;21.20;1.00;;;;;;5012496;28;20203;-65
2021/07/12 07:23:40;;;;;;;7.87;6.70;;;21.10;1.00;;;;;;5012358;28;20242;-65
2021/07/12 07:26:07;;;;;;;9.80;6.40;;;21.30;1.00;;;;;;5012181;28;20237;-64
2021/07/12 07:28:35;;;;;;;8.87;6.67;;;21.50;1.00;;;;;;5012276;28;20206;-65
2021/07/12 07:31:02;;;;;;;6.93;5.97;;;21.70;1.00;;;;;;5012068;28;20219;-65
2021/07/12 07:33:29;;;;;;;7.73;5.93;;;21.80;1.00;;;;;;5012194;28;20211;-64
2021/07/12 07:35:56;;;;;;;6.40;5.67;;;21.90;1.00;;;;;;5012250;28;20214;-65
2021/07/12 07:38:22;;;;;;;6.57;5.77;;;22.00;1.00;;;;;;5012236;28;20226;-65
2021/07/12 07:40:49;;;;;;;6.93;5.30;;;22.10;1.00;;;;;;5009338;28;20286;-64
2021/07/12 07:43:16;;;;;;;8.30;6.20;;;22.30;1.00;;;;;;5002343;28;20628;-64
2021/07/12 07:45:44;;;;;;;7.23;5.60;;;22.30;1.00;;;;;;4991888;28;20258;-62
2021/07/12 07:48:11;;;;;;;5.67;5.00;;;22.40;1.00;;;;;;4995097;28;20497;-63
2021/07/12 07:50:39;;;;;;;7.03;4.60;;;22.40;99.90;;;;;;4995231;28;20215;-64
2021/07/12 07:53:06;;;;;;;5.63;4.97;;;22.50;99.90;;;;;;4996084;28;20583;-65
2021/07/12 07:55:34;;;;;;;5.60;5.10;;;22.70;99.90;;;;;;4995821;28;20211;-64
2021/07/12 07:58:00;;;;;;;6.63;5.00;;;22.90;99.90;;;;;;4995563;28;20716;-64
2021/07/12 08:00:29;;;;;;;6.00;4.90;;;23.00;99.90;;;;;;4995960;28;20797;-65
2021/07/12 08:02:57;;;;;;;7.03;4.60;;;23.10;99.90;;;;;;4995955;28;20295;-64
2021/07/12 08:05:24;;;;;;;5.47;4.70;;;23.20;99.90;;;;;;4995693;28;20208;-65
2021/07/12 08:07:51;;;;;;;6.30;4.73;;;23.30;99.90;;;;;;4995468;28;20267;-64
2021/07/12 08:10:19;;;;;;;5.27;4.73;;;23.30;99.90;;;;;;4995516;28;20207;-63
2021/07/12 08:12:48;;;;;;;7.30;4.80;;;23.30;99.90;;;;;;4995241;28;20635;-64
2021/07/12 08:15:16;;;;;;;6.03;4.50;;;23.50;99.90;;;;;;4995633;28;20307;-65
2021/07/12 08:17:43;;;;;;;5.40;4.90;;;23.60;99.90;;;;;;4995418;28;20231;-64
2021/07/12 08:20:13;;;;;;;7.27;4.40;;;23.50;99.90;;;;;;4995225;28;20216;-64
2021/07/12 08:22:40;;;;;;;5.33;4.53;;;23.70;99.90;;;;;;4995266;28;20235;-64
2021/07/12 08:25:08;;;;;;;7.03;4.73;;;23.80;99.90;;;;;;4994893;28;20212;-65
2021/07/12 08:27:36;;;;;;;5.60;4.90;;;23.90;99.90;;;;;;4995536;28;20238;-64
2021/07/12 08:30:03;;;;;;;4.87;4.37;;;23.60;99.90;;;;;;4995358;28;20208;-64
2021/07/12 08:32:29;;;;;;;5.03;4.53;;;23.70;99.90;;;;;;4995041;28;20227;-65
2021/07/12 08:34:56;;;;;;;4.77;4.27;;;23.80;99.90;;;;;;4994926;28;20238;-67
2021/07/12 08:37:24;;;;;;;6.47;4.10;;;23.90;99.90;;;;;;4995250;28;20286;-67
2021/07/12 08:39:51;;;;;;;7.63;4.40;;;23.60;99.90;;;;;;4994901;28;20572;-64
2021/07/12 08:42:19;;;;;;;4.97;4.10;;;23.60;99.90;;;;;;4995091;28;20285;-63
2021/07/12 08:44:45;;;;;;;4.47;4.07;;;23.50;99.90;;;;;;4994930;28;20261;-64
2021/07/12 08:47:12;;;;;;;4.87;4.13;;;23.60;99.90;;;;;;4994848;28;20231;-65
2021/07/12 08:49:39;;;;;;;7.40;4.57;;;23.80;99.90;;;;;;4995136;28;20204;-65
2021/07/12 08:52:07;;;;;;;5.00;4.13;;;23.80;99.90;;;;;;4994640;28;20227;-66
2021/07/12 08:54:38;;;;;;;5.07;4.60;;;23.90;99.90;;;;;;4995157;28;20285;-68
2021/07/12 08:57:05;;;;;;;5.30;4.50;;;24.10;99.90;;;;;;4994817;28;20223;-66
2021/07/12 08:59:35;;;;;;;5.03;4.50;;;24.40;99.90;;;;;;4994776;28;20216;-66
2021/07/12 09:02:06;;;;;;;6.90;4.80;;;24.30;99.90;;;;;;4994340;28;20622;-67
2021/07/12 09:04:34;;;;;;;5.20;4.70;;;24.40;99.90;;;;;;4993676;28;20672;-63
2021/07/12 09:07:02;;;;;;;6.33;4.33;;;24.50;99.90;;;;;;4994144;28;20239;-64
2021/07/12 09:09:28;;;;;;;6.63;4.80;;;24.10;99.90;;;;;;4994946;28;20207;-63
2021/07/12 09:11:56;;;;;;;5.20;4.70;;;23.90;99.90;;;;;;4994377;28;20223;-62
2021/07/12 09:14:25;;;;;;;5.23;3.90;;;24.20;99.90;;;;;;4994564;28;20262;-66
2021/07/12 09:16:54;;;;;;;4.73;3.97;;;24.30;99.90;;;;;;4994577;28;20286;-66
2021/07/12 09:19:27;;;;;;;4.77;3.70;;;24.40;99.90;;;;;;4994233;28;20214;-64
2021/07/12 09:21:57;;;;;;;4.10;3.70;;;24.40;99.90;;;;;;4994421;28;20204;-65
2021/07/12 09:24:31;;;;;;;3.47;3.17;;;24.50;99.90;;;;;;4994263;28;20207;-65
2021/07/12 09:27:05;;;;;;;4.03;3.47;;;24.80;99.90;;;;;;4994427;28;20660;-64
2021/07/12 09:29:35;;;;;;;4.07;3.40;;;24.80;99.90;;;;;;4994166;28;20204;-64
2021/07/12 09:32:06;;;;;;;6.50;5.47;;;24.80;99.90;;;;;;4994114;28;20238;-66
2021/07/12 09:34:32;;;;;;;4.40;3.30;;;24.80;99.90;;;;;;4994120;28;20218;-64
2021/07/12 09:36:59;;;;;;;3.90;3.60;;;25.00;99.90;;;;;;4994505;28;20286;-64
2021/07/12 09:39:33;;;;;;;4.53;3.47;;;25.10;99.90;;;;;;4994421;28;20204;-64
2021/07/12 09:42:04;;;;;;;5.43;3.40;;;25.10;99.90;;;;;;4993175;28;20287;-64
2021/07/12 09:44:31;;;;;;;4.20;3.80;;;25.30;99.90;;;;;;4994279;28;20200;-64
2021/07/12 09:47:04;;;;;;;4.87;3.87;;;25.00;99.90;;;;;;4994260;28;20232;-64
2021/07/12 09:49:30;;;;;;;4.83;3.93;;;24.70;99.90;;;;;;4994438;28;20208;-63
2021/07/12 09:51:59;;;;;;;4.97;4.10;;;24.60;99.90;;;;;;4993503;28;20223;-64
2021/07/12 09:54:29;;;;;;;4.60;3.90;;;24.80;99.90;;;;;;4994035;28;20635;-64
2021/07/12 09:56:57;;;;;;;3.93;3.50;;;24.80;99.90;;;;;;4993793;28;20239;-64
2021/07/12 09:59:25;;;;;;;4.27;3.17;;;24.90;99.90;;;;;;4994190;28;20265;-64
2021/07/12 10:01:54;;;;;;;3.87;3.00;;;25.00;99.90;;;;;;4994168;28;20211;-64
2021/07/12 10:04:22;;;;;;;3.33;3.03;;;25.10;99.90;;;;;;4993617;28;20219;-64
2021/07/12 10:06:51;;;;;;;4.67;3.10;;;25.20;99.90;;;;;;4993783;28;20719;-64
2021/07/12 10:09:21;;;;;;;4.17;3.40;;;25.20;99.90;;;;;;4993781;28;20207;-64
2021/07/12 10:11:49;;;;;;;3.50;3.20;;;25.00;99.90;;;;;;4993783;28;20234;-64
2021/07/12 10:14:17;;;;;;;5.30;3.47;;;25.00;99.90;;;;;;4993336;28;20208;-64
2021/07/12 10:16:45;;;;;;;3.83;3.27;;;25.00;99.90;;;;;;4993334;28;20235;-63
2021/07/12 10:19:12;;;;;;;5.00;3.33;;;24.70;99.90;;;;;;4993564;28;20228;-63
2021/07/12 10:21:42;;;;;;;4.57;3.27;;;24.80;99.90;;;;;;4993819;28;20204;-64
2021/07/12 10:24:09;;;;;;;5.40;3.00;;;25.20;99.90;;;;;;4993588;28;20199;-64
2021/07/12 10:26:47;;;;;;;3.37;2.83;;;25.60;99.90;;;;;;4993176;28;20231;-63
2021/07/12 10:29:15;;;;;;;5.13;3.40;;;26.00;99.90;;;;;;4993547;28;20216;-63
2021/07/12 10:32:03;;;;;;;3.63;3.30;;;26.00;99.90;;;;;;4993324;28;20227;-63
2021/07/12 10:34:35;;;;;;;4.20;3.60;;;26.10;99.90;;;;;;4992862;28;20675;-64
2021/07/12 10:37:04;;;;;;;5.40;3.13;;;26.00;99.90;;;;;;4993414;28;20266;-63
2021/07/12 10:40:08;;;;;;;5.00;3.60;;;25.90;99.90;;;;;;4993383;28;20262;-63
2021/07/12 10:42:55;;;;;;;3.87;3.33;;;25.50;99.90;;;;;;4993179;28;20199;-66
2021/07/12 10:45:42;;;;;;;6.30;3.60;;;25.60;99.90;;;;;;4993566;28;20587;-63
2021/07/12 10:48:14;;;;;;;4.63;3.70;;;25.80;99.90;;;;;;4993083;28;20231;-65
2021/07/12 10:50:54;;;;;;;3.97;3.57;;;25.90;99.90;;;;;;4993133;28;20262;-66
2021/07/12 10:54:00;;;;;;;3.30;3.00;;;26.10;99.90;;;;;;4992615;28;20231;-64
2021/07/12 10:56:45;;;;;;;3.27;2.87;;;26.10;99.90;;;;;;4991249;28;20711;-63
2021/07/12 10:59:26;;;;;;;3.83;3.20;;;26.30;99.90;;;;;;4993051;28;20273;-64
2021/07/12 11:01:53;;;;;;;4.30;3.47;;;26.40;99.90;;;;;;4993416;28;20270;-64
2021/07/12 11:04:37;;;;;;;3.50;3.20;;;26.50;99.90;;;;;;4992763;28;20262;-64
2021/07/12 11:07:07;;;;;;;3.27;2.90;;;26.30;99.90;;;;;;4992959;28;20235;-63
2021/07/12 11:09:48;;;;;;;3.23;2.73;;;26.60;99.90;;;;;;4992792;28;20207;-64
2021/07/12 11:12:52;;;;;;;3.60;2.90;;;26.40;99.90;;;;;;4992935;28;20315;-63
2021/07/12 11:15:30;;;;;;;5.43;3.30;;;25.80;99.90;;;;;;4992316;28;20613;-64
2021/07/12 11:18:09;;;;;;;3.97;3.10;;;25.80;99.90;;;;;;4997132;28;20223;-61
2021/07/12 11:20:48;;;;;;;3.83;3.30;;;26.00;99.90;;;;;;5011972;28;20211;-62
2021/07/12 11:23:55;;;;;;;3.40;3.10;;;25.90;99.90;;;;;;5012322;28;20218;-62
2021/07/12 11:26:45;;;;;;;3.53;3.13;;;26.20;99.90;;;;;;5011600;28;20654;-62
2021/07/12 11:29:37;;;;;;;3.90;3.10;;;26.30;99.90;;;;;;5011065;28;20218;-64
2021/07/12 11:32:12;;;;;;;4.67;4.00;;;26.20;99.90;;;;;;5011733;28;20226;-64
2021/07/12 11:34:54;;;;;;;3.60;3.30;;;26.20;99.90;;;;;;5011570;28;20261;-62
2021/07/12 11:37:25;;;;;;;4.13;3.60;;;26.30;99.90;;;;;;4992219;28;20278;-63
2021/07/12 11:39:54;;;;;;;3.33;3.03;;;26.20;99.90;;;;;;4992150;28;20246;-63
2021/07/12 11:42:24;;;;;;;3.20;2.90;;;26.00;99.90;;;;;;4992090;28;20204;-65
2021/07/12 11:45:02;;;;;;;7.97;6.70;;;26.00;99.90;;;;;;4992477;28;20274;-65
2021/07/12 11:47:31;;;;;;;10.60;6.17;;;25.90;99.90;;;;;;4992702;28;20230;-65
2021/07/12 11:50:01;;;;;;;4.17;3.47;;;25.70;99.90;;;;;;4992233;28;20207;-63
2021/07/12 11:52:30;;;;;;;3.20;2.87;;;25.60;99.90;;;;;;4992246;28;20223;-63
2021/07/12 11:55:04;;;;;;;5.07;3.20;;;25.70;99.90;;;;;;4991931;28;20203;-65
2021/07/12 11:57:31;;;;;;;4.13;3.30;;;25.90;99.90;;;;;;4992040;28;20250;-63
2021/07/12 11:59:58;;;;;;;4.10;3.37;;;26.10;99.90;;;;;;4992406;28;20265;-63
2021/07/12 12:02:25;;;;;;;4.67;3.27;;;26.30;99.90;;;;;;4992256;28;20233;-64
2021/07/12 12:04:55;;;;;;;4.53;3.47;;;26.20;99.90;;;;;;4991819;28;20204;-61
2021/07/12 12:07:35;;;;;;;3.10;2.70;;;26.10;99.90;;;;;;4991922;28;20755;-62
2021/07/12 12:10:06;;;;;;;3.10;2.90;;;26.10;99.90;;;;;;4991578;28;20207;-62
2021/07/12 12:12:35;;;;;;;3.63;2.93;;;26.20;99.90;;;;;;4992025;28;20270;-62
2021/07/12 12:15:06;;;;;;;8.40;3.20;;;26.10;99.90;;;;;;4992216;28;20266;-63
2021/07/12 12:17:38;;;;;;;3.07;2.70;;;26.00;99.90;;;;;;4991780;28;20232;-63
2021/07/12 12:20:08;;;;;;;4.00;2.77;;;26.30;99.90;;;;;;4991809;28;20732;-63
2021/07/12 12:22:35;;;;;;;4.70;3.50;;;26.50;99.90;;;;;;4991573;28;20237;-63
2021/07/12 12:25:02;;;;;;;3.50;3.20;;;26.60;99.90;;;;;;4991874;28;20631;-62
2021/07/12 12:27:31;;;;;;;4.63;2.80;;;26.70;99.90;;;;;;4991665;28;20263;-63
2021/07/12 12:29:58;;;;;;;4.23;2.90;;;26.90;99.90;;;;;;4991807;28;20650;-63
2021/07/12 12:32:32;;;;;;;5.20;2.80;;;26.80;99.90;;;;;;4991817;28;20232;-63
2021/07/12 12:35:00;;;;;;;4.10;2.50;;;27.00;99.90;;;;;;4991836;28;20293;-64
2021/07/12 12:37:34;;;;;;;2.80;2.60;;;26.90;99.90;;;;;;4991668;28;20323;-64
2021/07/12 12:40:17;;;;;;;2.90;2.70;;;27.00;99.90;;;;;;4993426;28;20214;-64
2021/07/12 12:42:46;;;;;;;3.93;2.93;;;26.80;99.90;;;;;;4995424;28;20208;-64
2021/07/12 12:45:13;;;;;;;3.80;3.03;;;26.50;99.90;;;;;;4995018;28;20265;-63
2021/07/12 12:47:45;;;;;;;4.00;2.80;;;26.20;99.90;;;;;;4994794;28;20228;-64
2021/07/12 12:50:14;;;;;;;4.40;2.93;;;26.10;99.90;;;;;;4994969;28;20291;-65
2021/07/12 12:52:41;;;;;;;5.23;3.00;;;26.20;99.90;;;;;;4995243;28;20279;-65
2021/07/12 12:55:11;;;;;;;3.10;2.80;;;26.30;99.90;;;;;;4994790;28;20207;-66